createdAt,value
2023-01-05T00:01:40.884Z,98.80
2023-01-05T00:04:42.505Z,98.80
2023-01-05T00:07:44.455Z,98.60
2023-01-05T00:11:04.821Z,98.80
2023-01-05T00:14:25.244Z,98.10
2023-01-05T00:17:45.203Z,98.80
2023-01-05T00:21:05.197Z,98.10
2023-01-05T00:24:06.850Z,98.20
2023-01-05T00:27:08.336Z,98.60
2023-01-05T00:30:11.305Z,99.20
2023-01-05T00:33:17.387Z,98.50
2023-01-05T00:36:18.874Z,98.00
2023-01-05T00:39:20.311Z,98.60
2023-01-05T00:42:21.949Z,98.50
2023-01-05T00:45:23.435Z,98.60
2023-01-05T00:48:24.910Z,98.50
2023-01-05T00:51:26.436Z,98.60
2023-01-05T00:54:28.132Z,98.70
2023-01-05T00:57:29.602Z,98.40
2023-01-05T01:00:31.143Z,98.50
2023-01-05T01:03:32.645Z,98.50
2023-01-05T01:06:34.155Z,98.60
2023-01-05T01:09:35.781Z,98.70
2023-01-05T01:12:37.368Z,98.50
2023-01-05T01:15:38.831Z,98.60
2023-01-05T01:18:40.876Z,98.70
2023-01-05T01:21:42.629Z,98.70
2023-01-05T01:24:44.117Z,98.60
2023-01-05T01:27:45.584Z,98.60
2023-01-05T01:30:47.120Z,98.70
2023-01-05T01:33:48.597Z,98.70
2023-01-05T01:36:50.204Z,98.70
2023-01-05T01:39:51.688Z,98.70
2023-01-05T01:42:53.152Z,98.60
2023-01-05T01:45:54.950Z,98.70
2023-01-05T01:48:58.702Z,98.70
2023-01-05T01:52:00.292Z,99.30
2023-01-05T01:55:03.844Z,98.60
2023-01-05T01:58:07.197Z,98.70
2023-01-05T02:01:08.818Z,98.70
2023-01-05T02:04:10.921Z,98.60
2023-01-05T02:07:13.321Z,98.60
2023-01-05T02:10:17.408Z,98.60
2023-01-05T02:13:37.363Z,98.80
2023-01-05T02:16:51.110Z,98.00
2023-01-05T02:19:55.649Z,97.90
2023-01-05T02:23:08.937Z,97.90
2023-01-05T02:26:16.259Z,97.90
2023-01-05T02:29:33.105Z,98.00
2023-01-05T02:32:36.595Z,98.00
2023-01-05T02:35:44.197Z,98.70
2023-01-05T02:39:05.940Z,97.90
2023-01-05T02:42:13.134Z,98.50
2023-01-05T02:45:15.364Z,97.90
2023-01-05T02:48:16.888Z,99.00
2023-01-05T02:51:21.079Z,99.10
2023-01-05T02:54:34.947Z,98.60
2023-01-05T02:57:50.774Z,97.90
2023-01-05T03:00:54.524Z,98.50
2023-01-05T03:03:58.117Z,98.60
2023-01-05T03:07:02.063Z,98.60
2023-01-05T03:10:24.355Z,99.20
2023-01-05T03:13:42.270Z,98.70
2023-01-05T03:16:45.568Z,98.70
2023-01-05T03:19:48.762Z,98.60
2023-01-05T03:23:10.642Z,98.90
2023-01-05T03:26:31.347Z,98.60
2023-01-05T03:29:51.456Z,98.60
2023-01-05T03:33:14.867Z,98.10
2023-01-05T03:36:18.393Z,99.00
2023-01-05T03:39:20.388Z,98.60
2023-01-05T03:42:22.787Z,98.50
2023-01-05T03:45:26.097Z,98.40
2023-01-05T03:48:28.640Z,98.40
2023-01-05T03:51:30.202Z,98.50
2023-01-05T03:54:31.727Z,98.30
2023-01-05T03:57:33.262Z,98.60
2023-01-05T04:00:34.842Z,98.50
2023-01-05T04:03:36.957Z,98.50
2023-01-05T04:06:38.586Z,98.40
2023-01-05T04:09:40.094Z,98.40
2023-01-05T04:12:41.710Z,98.40
2023-01-05T04:15:43.235Z,99.00
2023-01-05T04:18:44.751Z,98.40
2023-01-05T04:21:46.261Z,98.50
2023-01-05T04:24:47.729Z,98.60
2023-01-05T04:27:49.216Z,98.50
2023-01-05T04:30:51.576Z,98.50
2023-01-05T04:33:53.067Z,98.60
2023-01-05T04:36:54.576Z,98.50
2023-01-05T04:39:56.059Z,98.50
2023-01-05T04:42:57.538Z,98.70
2023-01-05T04:45:59.027Z,98.60
2023-01-05T04:49:00.549Z,98.50
2023-01-05T04:52:02.118Z,98.70
2023-01-05T04:55:03.939Z,98.60
2023-01-05T04:58:10.085Z,98.80
2023-01-05T05:01:13.654Z,98.40
2023-01-05T05:04:15.165Z,98.60
2023-01-05T05:07:16.680Z,98.60
2023-01-05T05:10:18.525Z,98.80
2023-01-05T05:13:20.063Z,98.60
2023-01-05T05:16:21.627Z,98.60
2023-01-05T05:19:23.119Z,98.80
2023-01-05T05:22:24.955Z,98.80
2023-01-05T05:25:26.437Z,98.80
2023-01-05T05:28:28.243Z,98.90
2023-01-05T05:31:30.082Z,99.00
2023-01-05T05:34:31.696Z,98.90
2023-01-05T05:37:33.172Z,98.80
2023-01-05T05:40:34.640Z,99.00
2023-01-05T05:43:36.351Z,98.90
2023-01-05T05:46:37.982Z,99.00
2023-01-05T05:49:39.483Z,99.40
2023-01-05T05:52:41.194Z,99.10
2023-01-05T05:55:42.694Z,99.00
2023-01-05T05:58:44.232Z,99.50
2023-01-05T06:01:45.854Z,99.00
2023-01-05T06:04:47.426Z,98.90
2023-01-05T06:07:48.988Z,99.00
2023-01-05T06:10:50.587Z,98.90
2023-01-05T06:13:52.087Z,99.00
2023-01-05T06:16:53.604Z,99.10
2023-01-05T06:19:55.120Z,99.70
2023-01-05T06:22:56.603Z,99.60
2023-01-05T06:25:58.114Z,99.30
2023-01-05T06:28:59.577Z,99.30
2023-01-05T06:32:01.130Z,99.40
2023-01-05T06:35:02.970Z,99.20
2023-01-05T06:38:04.452Z,99.00
2023-01-05T06:41:05.949Z,99.30
2023-01-05T06:44:07.943Z,99.50
2023-01-05T06:47:09.443Z,99.30
2023-01-05T06:50:11.033Z,99.30
2023-01-05T06:53:12.531Z,99.40
2023-01-05T06:56:14.053Z,99.60
2023-01-05T06:59:15.581Z,99.40
2023-01-05T07:02:17.544Z,99.50
2023-01-05T07:05:19.214Z,99.50
2023-01-05T07:08:21.164Z,99.50
2023-01-05T07:11:22.842Z,99.20
2023-01-05T07:14:24.334Z,99.50
2023-01-05T07:17:26.065Z,99.40
2023-01-05T07:20:27.664Z,99.50
2023-01-05T07:23:29.957Z,99.50
2023-01-05T07:26:31.569Z,99.60
2023-01-05T07:29:33.483Z,99.60
2023-01-05T07:32:34.962Z,99.40
2023-01-05T07:35:36.399Z,99.50
2023-01-05T07:38:37.945Z,99.60
2023-01-05T07:41:39.464Z,99.50
2023-01-05T07:44:40.994Z,99.50
2023-01-05T07:47:42.443Z,99.40
2023-01-05T07:50:44.423Z,99.50
2023-01-05T07:53:45.896Z,99.60
2023-01-05T07:56:47.660Z,99.50
2023-01-05T07:59:49.131Z,99.50
2023-01-05T08:02:50.606Z,99.70
2023-01-05T08:05:52.108Z,99.60
2023-01-05T08:08:53.603Z,99.70
2023-01-05T08:11:55.058Z,99.60
2023-01-05T08:14:56.831Z,99.80
2023-01-05T08:17:58.315Z,99.60
2023-01-05T08:21:04.398Z,99.80
2023-01-05T08:24:06.177Z,99.70
2023-01-05T08:27:07.687Z,99.30
2023-01-05T08:30:09.873Z,99.50
2023-01-05T08:33:11.398Z,99.10
2023-01-05T08:36:14.990Z,99.50
2023-01-05T08:39:16.492Z,99.60
2023-01-05T08:42:18.009Z,99.30
2023-01-05T08:45:19.506Z,99.40
2023-01-05T08:48:21.295Z,99.40
2023-01-05T08:51:23.569Z,99.30
2023-01-05T08:54:25.025Z,99.40
2023-01-05T08:57:26.518Z,99.60
2023-01-05T09:00:28.046Z,99.40
2023-01-05T09:03:29.673Z,99.30
2023-01-05T09:06:31.210Z,99.60
2023-01-05T09:09:32.784Z,99.40
2023-01-05T09:12:35.418Z,99.20
2023-01-05T09:15:36.893Z,99.40
2023-01-05T09:18:40.040Z,99.30
2023-01-05T09:21:41.622Z,99.60
2023-01-05T09:24:43.088Z,99.30
2023-01-05T09:27:44.602Z,99.40
2023-01-05T09:30:50.541Z,99.90
2023-01-05T09:33:52.617Z,99.50
2023-01-05T09:36:54.117Z,99.50
2023-01-05T09:39:55.605Z,99.60
2023-01-05T09:42:57.180Z,99.50
2023-01-05T09:45:58.938Z,99.50
2023-01-05T09:49:01.422Z,99.50
2023-01-05T09:52:06.411Z,99.50
2023-01-05T09:55:18.050Z,99.60
2023-01-05T09:58:26.432Z,98.90
2023-01-05T10:01:32.640Z,99.50
2023-01-05T10:04:34.485Z,99.90
2023-01-05T10:07:40.275Z,99.50
2023-01-05T10:11:31.187Z,99.60
2023-01-05T10:14:38.620Z,98.80
2023-01-05T10:17:42.451Z,98.80
2023-01-05T10:20:48.379Z,99.40
2023-01-05T10:23:59.236Z,99.40
2023-01-05T10:30:50.025Z,99.50
2023-01-05T10:34:05.527Z,98.80
2023-01-05T10:37:12.419Z,98.80
2023-01-05T10:40:16.710Z,98.70
2023-01-05T10:43:28.353Z,99.40
2023-01-05T10:46:35.399Z,99.30
2023-01-05T10:49:43.604Z,99.20
2023-01-05T10:52:46.027Z,99.20
2023-01-05T10:55:54.638Z,99.30
2023-01-05T10:59:09.862Z,98.40
2023-01-05T11:02:12.149Z,98.40
2023-01-05T11:05:16.516Z,99.50
2023-01-05T11:08:25.525Z,98.30
2023-01-05T11:11:27.045Z,98.50
2023-01-05T11:14:40.638Z,99.00
2023-01-05T11:17:44.671Z,98.20
2023-01-05T11:21:04.683Z,98.90
2023-01-05T11:24:25.512Z,99.00
2023-01-05T11:27:27.265Z,99.40
2023-01-05T11:30:28.852Z,98.80
2023-01-05T11:33:33.643Z,98.90
2023-01-05T11:36:35.452Z,99.20
2023-01-05T11:39:46.199Z,99.10
2023-01-05T11:42:47.701Z,98.40
2023-01-05T11:45:51.315Z,99.30
2023-01-05T11:48:57.057Z,99.20
2023-01-05T11:51:58.534Z,98.50
2023-01-05T11:55:00.108Z,99.10
2023-01-05T11:58:12.999Z,99.00
2023-01-05T12:01:33.151Z,98.50
2023-01-05T12:04:44.135Z,98.40
2023-01-05T12:07:49.386Z,98.40
2023-01-05T12:11:04.348Z,99.10
2023-01-05T12:14:14.852Z,98.30
2023-01-05T12:17:19.918Z,98.40
2023-01-05T12:20:39.123Z,99.00
2023-01-05T12:23:46.614Z,98.30
2023-01-05T12:27:07.147Z,98.80
2023-01-05T12:34:02.308Z,98.30
2023-01-05T12:37:05.801Z,98.20
2023-01-05T12:40:26.260Z,99.40
2023-01-05T12:43:43.523Z,98.10
2023-01-05T12:47:04.033Z,98.00
2023-01-05T12:50:22.168Z,98.00
2023-01-05T12:53:36.039Z,98.00
2023-01-05T12:56:41.293Z,98.10
2023-01-05T12:59:57.962Z,98.70
2023-01-05T13:03:03.898Z,98.20
2023-01-05T13:06:17.737Z,98.30
2023-01-05T13:09:23.608Z,98.10
2023-01-05T13:12:25.461Z,98.70
2023-01-05T13:15:29.417Z,98.60
2023-01-05T13:18:32.023Z,98.70
2023-01-05T13:21:34.791Z,98.60
2023-01-05T13:24:43.872Z,98.70
2023-01-05T13:27:45.427Z,98.00
2023-01-05T13:31:07.176Z,98.70
2023-01-05T13:34:41.362Z,98.50
2023-01-05T13:38:07.741Z,97.90
2023-01-05T13:41:18.535Z,97.80
2023-01-05T13:44:32.379Z,97.80
2023-01-05T13:47:37.444Z,98.00
2023-01-05T13:51:01.006Z,99.10
2023-01-05T13:54:07.398Z,98.10
2023-01-05T13:57:14.970Z,99.00
2023-01-05T14:00:27.404Z,99.00
2023-01-05T14:03:29.909Z,98.30
2023-01-05T14:06:33.094Z,99.00
2023-01-05T14:09:37.652Z,98.90
2023-01-05T14:12:41.855Z,98.50
2023-01-05T14:15:43.649Z,98.10
2023-01-05T14:18:52.420Z,98.80
2023-01-05T14:21:56.343Z,98.30
2023-01-05T14:24:57.824Z,98.80
2023-01-05T14:28:18.161Z,98.80
2023-01-05T14:31:25.920Z,98.20
2023-01-05T14:34:27.822Z,98.20
2023-01-05T14:37:40.775Z,98.80
2023-01-05T14:40:43.827Z,98.30
2023-01-05T14:43:55.097Z,99.10
2023-01-05T14:46:57.115Z,99.20
2023-01-05T14:50:03.727Z,99.00
2023-01-05T14:53:25.197Z,99.10
2023-01-05T14:56:28.023Z,99.00
2023-01-05T14:59:30.736Z,99.00
2023-01-05T15:02:33.296Z,99.00
2023-01-05T15:05:37.820Z,99.20
2023-01-05T15:08:50.251Z,99.00
2023-01-05T15:12:01.394Z,99.10
2023-01-05T15:15:05.974Z,98.40
2023-01-05T15:18:26.417Z,98.30
2023-01-05T15:21:27.907Z,98.40
2023-01-05T15:24:48.071Z,99.10
2023-01-05T15:28:05.730Z,98.40
2023-01-05T15:31:07.197Z,98.50
2023-01-05T15:34:30.261Z,99.20
2023-01-05T15:37:39.466Z,98.60
2023-01-05T15:40:40.975Z,98.30
2023-01-05T15:43:43.425Z,99.30
2023-01-05T15:46:45.471Z,99.40
2023-01-05T15:49:47.349Z,99.00
2023-01-05T15:52:53.531Z,99.10
2023-01-05T15:55:55.718Z,98.30
2023-01-05T15:58:57.591Z,99.10
2023-01-05T16:01:59.482Z,99.00
2023-01-05T16:05:08.011Z,98.90
2023-01-05T16:08:15.472Z,98.20
2023-01-05T16:11:27.773Z,98.20
2023-01-05T16:14:44.928Z,99.00
2023-01-05T16:17:46.612Z,98.30
2023-01-05T16:20:49.814Z,99.00
2023-01-05T16:23:57.005Z,99.10
2023-01-05T16:26:58.665Z,98.40
2023-01-05T16:30:35.809Z,99.00
2023-01-05T16:33:40.139Z,98.30
2023-01-05T16:36:57.702Z,99.00
2023-01-05T16:40:01.124Z,99.00
2023-01-05T16:43:02.915Z,99.10
2023-01-05T16:46:19.965Z,99.50
2023-01-05T16:49:25.276Z,98.30
2023-01-05T16:52:30.926Z,99.80
2023-01-05T16:55:38.121Z,99.10
2023-01-05T16:58:39.810Z,99.30
2023-01-05T17:01:43.052Z,98.80
2023-01-05T17:04:47.072Z,99.30
2023-01-05T17:07:50.475Z,99.60
2023-01-05T17:10:53.155Z,99.30
2023-01-05T17:13:55.412Z,99.40
2023-01-05T17:16:58.881Z,99.60
2023-01-05T17:20:00.701Z,99.90
2023-01-05T17:23:03.094Z,99.90
2023-01-05T17:26:07.247Z,99.70
2023-01-05T17:29:15.108Z,99.50
2023-01-05T17:32:16.864Z,99.90
2023-01-05T17:35:20.032Z,99.90
2023-01-05T17:38:22.266Z,99.90
2023-01-05T17:41:23.978Z,99.90
2023-01-05T17:44:25.688Z,99.90
2023-01-05T17:47:27.472Z,99.90
2023-01-05T17:53:33.776Z,99.80
2023-01-05T17:56:35.443Z,99.90
2023-01-05T17:59:37.267Z,99.90
2023-01-05T18:02:42.197Z,99.90
2023-01-05T18:05:58.688Z,99.10
2023-01-05T18:09:00.448Z,98.90
2023-01-05T18:12:02.291Z,99.90
2023-01-05T18:15:06.401Z,99.90
2023-01-05T18:18:08.139Z,99.70
2023-01-05T18:21:10.201Z,99.90
2023-01-05T18:24:11.941Z,99.90
2023-01-05T18:27:13.569Z,99.90
2023-01-05T18:30:15.334Z,99.90
2023-01-05T18:33:16.961Z,99.90
2023-01-05T18:36:18.576Z,99.90
2023-01-05T18:39:20.345Z,99.90
2023-01-05T18:42:21.976Z,99.90
2023-01-05T18:45:38.415Z,99.90
2023-01-05T18:48:40.495Z,99.70
2023-01-05T18:51:42.505Z,99.90
2023-01-05T18:54:45.292Z,99.30
2023-01-05T18:57:47.014Z,99.60
2023-01-05T19:00:48.604Z,99.90
2023-01-05T19:03:50.748Z,99.90
2023-01-05T19:06:52.286Z,99.70
2023-01-05T19:09:53.867Z,99.90
2023-01-05T19:12:55.514Z,99.90
2023-01-05T19:16:00.258Z,99.90
2023-01-05T19:19:08.413Z,99.90
2023-01-05T19:22:09.999Z,99.50
2023-01-05T19:25:12.185Z,99.90
2023-01-05T19:28:13.742Z,99.40
2023-01-05T19:31:15.396Z,99.60
2023-01-05T19:34:19.463Z,99.90
2023-01-05T19:37:21.477Z,99.90
2023-01-05T19:40:24.402Z,99.90
2023-01-05T19:43:26.427Z,99.90
2023-01-05T19:46:28.534Z,99.80
2023-01-05T19:49:30.105Z,99.20
2023-01-05T19:52:31.633Z,99.30
2023-01-05T19:55:37.657Z,99.40
2023-01-05T19:58:39.656Z,99.10
2023-01-05T20:01:41.300Z,99.20
2023-01-05T20:04:45.459Z,99.90
2023-01-05T20:07:47.418Z,99.90
2023-01-05T20:10:48.963Z,99.80
2023-01-05T20:13:51.699Z,99.70
2023-01-05T20:16:53.261Z,99.90
2023-01-05T20:19:54.873Z,99.90
2023-01-05T20:22:56.396Z,99.80
2023-01-05T20:26:11.948Z,99.60
2023-01-05T20:29:14.801Z,98.80
2023-01-05T20:32:18.335Z,99.50
2023-01-05T20:35:19.966Z,99.70
2023-01-05T20:38:21.644Z,99.70
2023-01-05T20:41:28.378Z,99.90
2023-01-05T20:45:23.145Z,98.90
2023-01-05T20:52:27.923Z,99.90
2023-01-05T20:55:44.581Z,99.90
2023-01-05T21:07:23.249Z,98.40
2023-01-05T21:36:20.279Z,99.90
2023-01-05T21:43:29.944Z,99.10
2023-01-05T21:46:31.420Z,99.50
2023-01-05T21:49:32.895Z,99.90
2023-01-05T21:52:53.325Z,99.80
2023-01-05T21:56:13.292Z,99.50
2023-01-05T21:59:14.752Z,98.80
2023-01-05T22:02:18.627Z,99.50
2023-01-05T22:05:20.232Z,99.80
2023-01-05T22:08:23.670Z,99.40
2023-01-05T22:11:25.140Z,99.50
2023-01-05T22:14:26.639Z,99.80
2023-01-05T22:17:28.197Z,99.40
2023-01-05T22:20:29.710Z,99.60
2023-01-05T22:23:31.884Z,99.50
2023-01-05T22:26:36.871Z,99.70
2023-01-05T22:29:38.366Z,99.80
2023-01-05T22:32:39.834Z,99.40
2023-01-05T22:35:41.363Z,99.40
2023-01-05T22:38:43.813Z,99.40
2023-01-05T22:41:46.328Z,99.90
2023-01-05T22:44:47.805Z,99.70
2023-01-05T22:47:49.278Z,99.70
2023-01-05T22:50:50.777Z,99.70
2023-01-05T22:53:52.685Z,99.80
2023-01-05T22:56:54.362Z,99.70
2023-01-05T22:59:55.847Z,99.50
2023-01-05T23:02:58.888Z,99.70
2023-01-05T23:06:00.345Z,99.60
2023-01-05T23:09:03.824Z,99.60
2023-01-05T23:12:05.596Z,99.80
2023-01-05T23:15:07.372Z,99.60
2023-01-05T23:18:08.845Z,99.40
2023-01-05T23:21:11.661Z,99.60
2023-01-05T23:24:13.571Z,99.90
2023-01-05T23:27:15.098Z,99.80
2023-01-05T23:30:16.620Z,99.90
2023-01-05T23:33:19.192Z,99.70
2023-01-05T23:36:21.339Z,99.90
2023-01-05T23:39:22.795Z,99.80
2023-01-05T23:42:42.959Z,99.70
2023-01-05T23:45:44.913Z,99.00
2023-01-05T23:48:46.762Z,99.90
2023-01-05T23:51:48.285Z,99.50
2023-01-05T23:54:49.770Z,99.60
2023-01-05T23:57:51.305Z,99.60
